createdAt,value
2016-09-25T00:00:07.165Z,78.79
2016-09-25T00:01:07.185Z,78.41
2016-09-25T00:02:07.197Z,78.6
2016-09-25T00:03:07.229Z,78.7
2016-09-25T00:04:07.246Z,78.7
2016-09-25T00:05:07.262Z,79.46
2016-09-25T00:06:07.275Z,79.17
2016-09-25T00:07:07.299Z,79.27
2016-09-25T00:08:07.315Z,79.08
2016-09-25T00:09:07.342Z,78.7
2016-09-25T00:10:07.345Z,78.79
2016-09-25T00:11:07.370Z,78.99
2016-09-25T00:12:07.388Z,79.27
2016-09-25T00:13:07.413Z,79.08
2016-09-25T00:14:07.426Z,78.89
2016-09-25T00:15:07.439Z,79.14
2016-09-25T00:16:07.471Z,79.23
2016-09-25T00:17:07.476Z,79.33
2016-09-25T00:18:07.503Z,79.27
2016-09-25T00:19:07.518Z,79.71
2016-09-25T00:20:07.540Z,79.14
2016-09-25T00:21:07.552Z,79.33
2016-09-25T00:22:07.570Z,79.85
2016-09-25T00:23:07.591Z,79.04
2016-09-25T00:24:07.617Z,78.75
2016-09-25T00:25:07.635Z,78.94
2016-09-25T00:26:07.649Z,79.71
2016-09-25T00:27:07.661Z,79.9
2016-09-25T00:28:07.687Z,79.61
2016-09-25T00:29:07.702Z,80.38
2016-09-25T00:30:07.727Z,80.19
2016-09-25T00:31:07.741Z,79.71
2016-09-25T00:32:07.751Z,79.8
2016-09-25T00:33:07.785Z,80.19
2016-09-25T00:34:07.797Z,80.19
2016-09-25T00:35:07.816Z,80.19
2016-09-25T00:36:07.834Z,80.57
2016-09-25T00:37:07.849Z,80.66
2016-09-25T00:38:07.873Z,80.76
2016-09-25T00:39:07.885Z,80.57
2016-09-25T00:40:07.907Z,80.47
2016-09-25T00:41:07.918Z,81.04
2016-09-25T00:42:07.947Z,80.57
2016-09-25T00:43:07.977Z,81.52
2016-09-25T00:44:07.992Z,81.24
2016-09-25T00:45:08.000Z,80.95
2016-09-25T00:46:08.017Z,81.24
2016-09-25T00:47:08.026Z,81.24
2016-09-25T00:48:08.040Z,81.62
2016-09-25T00:49:08.072Z,81.33
2016-09-25T00:50:08.090Z,81.24
2016-09-25T00:51:08.111Z,81.24
2016-09-25T00:52:08.128Z,80.95
2016-09-25T00:53:08.139Z,81.24
2016-09-25T00:54:08.165Z,81.71
2016-09-25T00:55:08.189Z,81.62
2016-09-25T00:56:08.200Z,81.62
2016-09-25T00:57:08.222Z,81.81
2016-09-25T00:58:08.241Z,81.62
2016-09-25T00:59:08.247Z,82
2016-09-25T01:00:08.269Z,81.81
2016-09-25T01:01:08.296Z,81.62
2016-09-25T01:02:08.302Z,81.62
2016-09-25T01:03:08.336Z,81.81
2016-09-25T01:04:08.347Z,81.81
2016-09-25T01:05:08.368Z,81.43
2016-09-25T01:06:08.380Z,81.71
2016-09-25T01:07:08.393Z,82
2016-09-25T01:08:08.412Z,81.71
2016-09-25T01:09:08.444Z,81.81
2016-09-25T01:10:08.454Z,81.81
2016-09-25T01:11:08.478Z,81.71
2016-09-25T01:12:08.509Z,81.62
2016-09-25T01:13:08.533Z,81.62
2016-09-25T01:14:08.532Z,81.62
2016-09-25T01:15:08.542Z,81.33
2016-09-25T01:16:08.568Z,81.14
2016-09-25T01:17:08.605Z,81.24
2016-09-25T01:18:08.611Z,80.95
2016-09-25T01:19:08.629Z,80.95
2016-09-25T01:20:08.642Z,80.95
2016-09-25T01:21:08.667Z,81.24
2016-09-25T01:22:08.668Z,81.24
2016-09-25T01:23:08.694Z,81.52
2016-09-25T01:24:08.719Z,81.43
2016-09-25T01:25:08.737Z,80.95
2016-09-25T01:26:08.748Z,81.04
2016-09-25T01:27:08.774Z,81.33
2016-09-25T01:28:08.792Z,81.52
2016-09-25T01:29:08.802Z,81.43
2016-09-25T01:30:08.825Z,81.33
2016-09-25T01:31:08.856Z,81.24
2016-09-25T01:32:08.871Z,81.04
2016-09-25T01:33:08.877Z,81.33
2016-09-25T01:34:08.906Z,81.04
2016-09-25T01:35:08.917Z,81.04
2016-09-25T01:36:08.942Z,81.33
2016-09-25T01:37:08.958Z,81.14
2016-09-25T01:38:08.967Z,81.43
2016-09-25T01:39:08.998Z,81.14
2016-09-25T01:40:09.002Z,81.24
2016-09-25T01:41:09.033Z,81.33
2016-09-25T01:42:09.042Z,81.52
2016-09-25T01:43:09.070Z,81.14
2016-09-25T01:44:09.083Z,81.24
2016-09-25T01:45:09.100Z,81.04
2016-09-25T01:46:09.139Z,81.24
2016-09-25T01:47:09.142Z,81.24
2016-09-25T01:48:09.159Z,81.24
2016-09-25T01:49:09.170Z,81.43
2016-09-25T01:50:09.197Z,81.62
2016-09-25T01:51:09.216Z,81.52
2016-09-25T01:52:09.226Z,81.43
2016-09-25T01:53:09.257Z,81.33
2016-09-25T01:54:09.275Z,81.52
2016-09-25T01:55:09.288Z,81.14
2016-09-25T01:56:09.299Z,81.43
2016-09-25T01:57:09.325Z,81.62
2016-09-25T01:58:09.348Z,81.14
2016-09-25T01:59:09.358Z,81.48
2016-09-25T02:00:09.382Z,81.43
2016-09-25T02:01:09.396Z,81.71
2016-09-25T02:02:09.411Z,81.62
2016-09-25T02:03:09.444Z,81.81
2016-09-25T02:04:09.443Z,81.81
2016-09-25T02:05:09.477Z,81.38
2016-09-25T02:06:09.494Z,81.58
2016-09-25T02:07:09.511Z,81.48
2016-09-25T02:08:09.528Z,81.48
2016-09-25T02:09:09.539Z,82.06
2016-09-25T02:10:09.555Z,82.06
2016-09-25T02:11:09.584Z,82.06
2016-09-25T02:12:09.605Z,82
2016-09-25T02:13:09.622Z,82.24
2016-09-25T02:14:09.634Z,82.19
2016-09-25T02:15:09.649Z,82.06
2016-09-25T02:16:09.675Z,82.24
2016-09-25T02:17:09.698Z,81.86
2016-09-25T02:18:09.712Z,81.96
2016-09-25T02:19:09.730Z,81.77
2016-09-25T02:20:09.753Z,81.86
2016-09-25T02:21:09.769Z,81.96
2016-09-25T02:22:09.780Z,81.77
2016-09-25T02:23:09.791Z,82.15
2016-09-25T02:24:09.825Z,81.96
2016-09-25T02:25:09.841Z,81.86
2016-09-25T02:26:09.854Z,81.86
2016-09-25T02:27:09.874Z,82.06
2016-09-25T02:28:09.901Z,81.9
2016-09-25T02:29:09.923Z,81.9
2016-09-25T02:30:09.933Z,81.81
2016-09-25T02:31:09.955Z,81.33
2016-09-25T02:32:09.969Z,81.81
2016-09-25T02:33:09.983Z,81.52
2016-09-25T02:34:10.004Z,81.52
2016-09-25T02:35:10.021Z,81.43
2016-09-25T02:36:10.045Z,81.62
2016-09-25T02:37:10.065Z,81.33
2016-09-25T02:38:10.082Z,81.24
2016-09-25T02:39:10.103Z,81.52
2016-09-25T02:40:10.109Z,81.52
2016-09-25T02:41:10.128Z,81.52
2016-09-25T02:42:10.158Z,81.52
2016-09-25T02:43:10.172Z,81.62
2016-09-25T02:44:10.182Z,80.95
2016-09-25T02:45:10.202Z,81.43
2016-09-25T02:46:10.212Z,81.33
2016-09-25T02:47:10.238Z,81.04
2016-09-25T02:48:10.264Z,81.24
2016-09-25T02:49:10.280Z,81.43
2016-09-25T02:50:10.295Z,81.52
2016-09-25T02:51:10.316Z,80.76
2016-09-25T02:52:10.338Z,80.38
2016-09-25T02:53:10.346Z,80.95
2016-09-25T02:54:10.375Z,80.66
2016-09-25T02:55:10.395Z,81.14
2016-09-25T02:56:10.407Z,80.66
2016-09-25T02:57:10.431Z,81.04
2016-09-25T02:58:10.450Z,80.47
2016-09-25T02:59:10.469Z,80.28
2016-09-25T03:00:10.489Z,80.85
2016-09-25T03:01:10.506Z,81.14
2016-09-25T03:02:10.516Z,80.85
2016-09-25T03:03:10.548Z,80.57
2016-09-25T03:04:10.563Z,80.47
2016-09-25T03:05:10.570Z,80.57
2016-09-25T03:06:10.598Z,80.47
2016-09-25T03:07:10.619Z,80.28
2016-09-25T03:08:10.632Z,80.76
2016-09-25T03:09:10.657Z,80.76
2016-09-25T03:10:10.669Z,80.66
2016-09-25T03:11:10.691Z,80.57
2016-09-25T03:12:10.717Z,80.57
2016-09-25T03:13:10.730Z,80.47
2016-09-25T03:14:10.741Z,80.28
2016-09-25T03:15:10.760Z,80.38
2016-09-25T03:16:10.779Z,80.09
2016-09-25T03:17:10.795Z,80.04
2016-09-25T03:18:10.821Z,80.19
2016-09-25T03:19:10.840Z,80.19
2016-09-25T03:20:10.853Z,80.19
2016-09-25T03:21:10.869Z,80.09
2016-09-25T03:22:10.884Z,80.19
2016-09-25T03:23:10.910Z,79.99
2016-09-25T03:24:10.929Z,80.19
2016-09-25T03:25:10.949Z,80.09
2016-09-25T03:26:10.962Z,80.38
2016-09-25T03:27:10.990Z,80.19
2016-09-25T03:28:10.997Z,79.99
2016-09-25T03:29:11.020Z,80.19
2016-09-25T03:30:11.031Z,80.19
2016-09-25T03:31:11.066Z,79.99
2016-09-25T03:32:11.080Z,79.99
2016-09-25T03:33:11.102Z,80.09
2016-09-25T03:34:11.120Z,80.28
2016-09-25T03:35:11.132Z,80.28
2016-09-25T03:36:11.162Z,80.19
2016-09-25T03:37:11.174Z,80.19
2016-09-25T03:38:11.190Z,80.19
2016-09-25T03:39:11.209Z,80.38
2016-09-25T03:40:11.228Z,80.28
2016-09-25T03:41:11.241Z,80.28
2016-09-25T03:42:11.263Z,80.09
2016-09-25T03:43:11.279Z,79.8
2016-09-25T03:44:11.301Z,80.38
2016-09-25T03:45:11.315Z,79.61
2016-09-25T03:46:11.341Z,79.61
2016-09-25T03:47:11.362Z,79.61
2016-09-25T03:48:11.374Z,79.71
2016-09-25T03:49:11.395Z,79.43
2016-09-25T03:50:11.399Z,79.71
2016-09-25T03:51:11.431Z,79.71
2016-09-25T03:52:11.447Z,79.61
2016-09-25T03:53:11.469Z,79.9
2016-09-25T03:54:11.479Z,79.71
2016-09-25T03:55:11.488Z,79.52
2016-09-25T03:56:11.522Z,79.61
2016-09-25T03:57:11.521Z,79.99
2016-09-25T03:58:11.557Z,79.61
2016-09-25T03:59:11.577Z,79.52
2016-09-25T04:01:11.624Z,79.8
2016-09-25T04:02:11.635Z,79.71
2016-09-25T04:03:11.653Z,79.9
2016-09-25T04:04:11.677Z,79.9
2016-09-25T04:05:11.690Z,79.99
2016-09-25T04:06:11.714Z,79.9
2016-09-25T04:07:11.726Z,79.71
2016-09-25T04:08:11.748Z,79.8
2016-09-25T04:09:11.773Z,79.71
2016-09-25T04:10:11.789Z,79.61
2016-09-25T04:11:11.805Z,79.43
2016-09-25T04:12:11.827Z,80.22
2016-09-25T04:13:11.843Z,79.99
2016-09-25T04:14:11.862Z,79.9
2016-09-25T04:15:11.880Z,80.19
2016-09-25T04:16:11.902Z,79.8
2016-09-25T04:17:11.920Z,79.61
2016-09-25T04:18:11.933Z,79.9
2016-09-25T04:19:11.958Z,80.19
2016-09-25T04:20:11.975Z,79.8
2016-09-25T04:21:12.004Z,79.8
2016-09-25T04:22:12.013Z,80.09
2016-09-25T04:23:12.025Z,79.8
2016-09-25T04:24:12.049Z,79.99
2016-09-25T04:25:12.069Z,80.28
2016-09-25T04:26:12.080Z,80.38
2016-09-25T04:27:12.102Z,80.09
2016-09-25T04:28:12.121Z,80.09
2016-09-25T04:29:12.148Z,79.99
2016-09-25T04:30:12.158Z,79.8
2016-09-25T04:31:12.185Z,79.71
2016-09-25T04:32:12.196Z,80.09
2016-09-25T04:33:12.219Z,80.13
2016-09-25T04:34:12.225Z,80.09
2016-09-25T04:35:12.249Z,79.99
2016-09-25T04:36:12.263Z,80.19
2016-09-25T04:37:12.290Z,80.09
2016-09-25T04:38:12.317Z,80.09
2016-09-25T04:39:12.328Z,80.38
2016-09-25T04:40:12.333Z,80.09
2016-09-25T04:41:12.360Z,79.61
2016-09-25T04:42:12.383Z,80.19
2016-09-25T04:43:12.398Z,80.09
2016-09-25T04:44:12.421Z,79.99
2016-09-25T04:45:12.425Z,80.38
2016-09-25T04:46:12.449Z,80.22
2016-09-25T04:47:12.476Z,80.19
2016-09-25T04:48:12.479Z,80.38
2016-09-25T04:49:12.510Z,80.76
2016-09-25T04:50:12.533Z,80.57
2016-09-25T04:51:12.544Z,80.47
2016-09-25T04:52:12.583Z,80.76
2016-09-25T04:53:12.594Z,80.66
2016-09-25T04:54:12.617Z,80.57
2016-09-25T04:55:12.610Z,80.38
2016-09-25T04:56:12.641Z,80.76
2016-09-25T04:57:12.657Z,80.47
2016-09-25T04:58:12.676Z,80.85
2016-09-25T04:59:12.698Z,81.14
2016-09-25T05:00:12.712Z,80.38
2016-09-25T05:01:12.737Z,80.57
2016-09-25T05:02:12.746Z,80.19
2016-09-25T05:03:12.759Z,80.47
2016-09-25T05:04:12.779Z,80.38
2016-09-25T05:05:12.796Z,80.38
2016-09-25T05:06:12.819Z,80.19
2016-09-25T05:07:12.844Z,81.04
2016-09-25T05:08:12.861Z,80.76
2016-09-25T05:09:12.880Z,80.47
2016-09-25T05:10:12.899Z,80.47
2016-09-25T05:11:12.953Z,80.57
2016-09-25T05:12:12.929Z,80.76
2016-09-25T05:13:12.952Z,80.57
2016-09-25T05:14:12.972Z,80.13
2016-09-25T05:15:12.993Z,80.22
2016-09-25T05:16:13.003Z,80.09
2016-09-25T05:17:13.031Z,79.65
2016-09-25T05:18:13.032Z,80.19
2016-09-25T05:19:13.054Z,79.85
2016-09-25T05:20:13.079Z,80.32
2016-09-25T05:21:13.107Z,80.22
2016-09-25T05:22:13.111Z,80.32
2016-09-25T05:23:13.128Z,79.65
2016-09-25T05:24:13.154Z,80.13
2016-09-25T05:25:13.166Z,80.22
2016-09-25T05:26:13.184Z,80.13
2016-09-25T05:27:13.199Z,80.04
2016-09-25T05:28:13.228Z,80.04
2016-09-25T05:29:13.242Z,80.19
2016-09-25T05:30:13.261Z,79.85
2016-09-25T05:31:13.289Z,79.75
2016-09-25T05:32:13.304Z,80.32
2016-09-25T05:33:13.313Z,80.19
2016-09-25T05:34:13.339Z,80.13
2016-09-25T05:35:13.360Z,80.41
2016-09-25T05:36:13.378Z,80.19
2016-09-25T05:37:13.391Z,80.61
2016-09-25T05:38:13.410Z,80.19
2016-09-25T05:39:13.430Z,80.13
2016-09-25T05:40:13.457Z,80.13
2016-09-25T05:41:13.462Z,80.13
2016-09-25T05:42:13.482Z,80.32
2016-09-25T05:43:13.499Z,80.04
2016-09-25T05:44:13.516Z,80.13
2016-09-25T05:45:13.546Z,79.75
2016-09-25T05:46:13.555Z,79.94
2016-09-25T05:47:13.579Z,79.65
2016-09-25T05:48:13.595Z,79.17
2016-09-25T05:49:13.617Z,78.99
2016-09-25T05:50:13.637Z,79.46
2016-09-25T05:51:13.645Z,78.89
2016-09-25T05:52:13.670Z,78.89
2016-09-25T05:53:13.691Z,79.08
2016-09-25T05:54:13.708Z,79.36
2016-09-25T05:55:13.726Z,78.6
2016-09-25T05:56:13.753Z,78.79
2016-09-25T05:57:13.769Z,78.74
2016-09-25T05:58:13.777Z,78.74
2016-09-25T05:59:13.803Z,78.64
2016-09-25T06:00:13.823Z,78.07
2016-09-25T06:01:13.832Z,78.16
2016-09-25T06:02:13.852Z,78.07
2016-09-25T06:03:13.883Z,78.07
2016-09-25T06:04:13.896Z,78.26
2016-09-25T06:05:13.914Z,78.07
2016-09-25T06:06:13.934Z,78.07
2016-09-25T06:07:13.944Z,78.26
2016-09-25T06:08:13.975Z,77.87
2016-09-25T06:09:13.988Z,78.07
2016-09-25T06:10:14.008Z,78.16
2016-09-25T06:11:14.025Z,77.78
2016-09-25T06:12:14.061Z,77.69
2016-09-25T06:13:14.058Z,77.97
2016-09-25T06:14:14.083Z,78.16
2016-09-25T06:15:14.101Z,77.69
2016-09-25T06:16:14.119Z,77.87
2016-09-25T06:17:14.138Z,77.5
2016-09-25T06:18:14.154Z,76.96
2016-09-25T06:19:14.168Z,77.15
2016-09-25T06:20:14.196Z,77.06
2016-09-25T06:21:14.207Z,77.25
2016-09-25T06:22:14.226Z,77.06
2016-09-25T06:23:14.257Z,76.77
2016-09-25T06:24:14.270Z,77.15
2016-09-25T06:25:14.286Z,76.77
2016-09-25T06:26:14.303Z,76.57
2016-09-25T06:27:14.325Z,76.86
2016-09-25T06:28:14.347Z,76.39
2016-09-25T06:29:14.365Z,76.67
2016-09-25T06:30:14.388Z,76.2
2016-09-25T06:31:14.391Z,75.91
2016-09-25T06:32:14.428Z,75.62
2016-09-25T06:33:14.442Z,75.56
2016-09-25T06:34:14.470Z,75.76
2016-09-25T06:35:14.479Z,75.62
2016-09-25T06:36:14.500Z,75.47
2016-09-25T06:37:14.510Z,75.27
2016-09-25T06:38:14.528Z,74.99
2016-09-25T06:39:14.547Z,74.9
2016-09-25T06:40:14.569Z,75.09
2016-09-25T06:41:14.589Z,74.41
2016-09-25T06:42:14.605Z,73.94
2016-09-25T06:43:14.625Z,74.26
2016-09-25T06:44:14.650Z,74.04
2016-09-25T06:45:14.672Z,73.69
2016-09-25T06:46:14.695Z,73.3
2016-09-25T06:47:14.713Z,73.5
2016-09-25T06:48:14.732Z,73.3
2016-09-25T06:49:14.747Z,73.3
2016-09-25T06:50:14.760Z,72.63
2016-09-25T06:51:14.784Z,73.02
2016-09-25T06:52:14.806Z,72.54
2016-09-25T06:53:14.830Z,72.25
2016-09-25T06:54:14.851Z,72.38
2016-09-25T06:55:14.868Z,71.81
2016-09-25T06:56:14.886Z,71.77
2016-09-25T06:57:14.911Z,71.91
2016-09-25T06:58:14.921Z,72.09
2016-09-25T06:59:14.931Z,71.52
2016-09-25T07:00:14.959Z,70.95
2016-09-25T07:01:14.990Z,70.56
2016-09-25T07:02:15.000Z,70.95
2016-09-25T07:03:15.023Z,70.56
2016-09-25T07:04:15.040Z,70.95
2016-09-25T07:05:15.065Z,70.66
2016-09-25T07:06:15.087Z,70.6
2016-09-25T07:07:15.091Z,70.31
2016-09-25T07:08:15.124Z,70.41
2016-09-25T07:09:15.143Z,70.03
2016-09-25T07:10:15.182Z,70.6
2016-09-25T07:11:15.221Z,70.31
2016-09-25T07:12:15.222Z,70.41
2016-09-25T07:13:15.259Z,69.93
2016-09-25T07:14:15.264Z,70.12
2016-09-25T07:15:15.302Z,70.12
2016-09-25T07:16:15.324Z,69.83
2016-09-25T07:17:15.331Z,69.83
2016-09-25T07:18:15.350Z,69.35
2016-09-25T07:19:15.350Z,69.45
2016-09-25T07:20:15.366Z,69.35
2016-09-25T07:21:15.375Z,69.29
2016-09-25T07:22:15.439Z,69.1
2016-09-25T07:23:15.449Z,68.91
2016-09-25T07:24:15.483Z,68.72
2016-09-25T07:25:15.503Z,68.81
2016-09-25T07:26:15.535Z,68.72
2016-09-25T07:27:15.557Z,68.66
2016-09-25T07:28:15.564Z,68.33
2016-09-25T07:29:15.569Z,68.66
2016-09-25T07:30:15.564Z,68.08
2016-09-25T07:31:15.589Z,67.79
2016-09-25T07:32:15.606Z,67.99
2016-09-25T07:33:15.632Z,67.99
2016-09-25T07:34:15.663Z,67.79
2016-09-25T07:35:15.664Z,67.79
2016-09-25T07:36:15.701Z,67.25
2016-09-25T07:37:15.711Z,66.96
2016-09-25T07:38:15.737Z,67.06
2016-09-25T07:39:15.757Z,67.16
2016-09-25T07:40:15.772Z,66.58
2016-09-25T07:41:15.794Z,66.77
2016-09-25T07:42:15.817Z,66.29
2016-09-25T07:43:15.839Z,66.29
2016-09-25T07:44:15.860Z,66.58
2016-09-25T07:45:15.878Z,66.29
2016-09-25T07:46:15.902Z,66.03
2016-09-25T07:47:15.924Z,66.03
2016-09-25T07:48:15.943Z,65.84
2016-09-25T07:49:15.958Z,65.94
2016-09-25T07:50:15.978Z,65.65
2016-09-25T07:51:16.005Z,65.36
2016-09-25T07:52:16.028Z,65.27
2016-09-25T07:53:16.044Z,64.79
2016-09-25T07:54:16.059Z,64.98
2016-09-25T07:55:16.090Z,64.59
2016-09-25T07:56:16.110Z,64.79
2016-09-25T07:57:16.136Z,64.98
2016-09-25T07:58:16.152Z,64.82
2016-09-25T07:59:16.169Z,64.34
2016-09-25T08:00:16.188Z,64.34
2016-09-25T08:01:16.211Z,63.96
2016-09-25T08:02:16.240Z,64.25
2016-09-25T08:03:16.262Z,64.25
2016-09-25T08:04:16.271Z,63.57
2016-09-25T08:05:16.300Z,63.76
2016-09-25T08:06:16.324Z,64.05
2016-09-25T08:07:16.340Z,64.09
2016-09-25T08:08:16.363Z,62.9
2016-09-25T08:09:16.387Z,62.84
2016-09-25T08:10:16.399Z,63.19
2016-09-25T08:11:16.415Z,62.84
2016-09-25T08:12:16.448Z,63.12
2016-09-25T08:13:16.463Z,62.84
2016-09-25T08:14:16.495Z,62.93
2016-09-25T08:15:16.515Z,62.74
2016-09-25T08:16:16.540Z,62.26
2016-09-25T08:17:16.552Z,61.97
2016-09-25T08:18:16.582Z,62.45
2016-09-25T08:19:16.602Z,62.07
2016-09-25T08:20:16.623Z,61.4
2016-09-25T08:21:16.639Z,61.43
2016-09-25T08:22:16.658Z,61.49
2016-09-25T08:23:16.680Z,61.61
2016-09-25T08:24:16.708Z,61.33
2016-09-25T08:25:16.726Z,61.71
2016-09-25T08:26:16.754Z,61.04
2016-09-25T08:27:16.774Z,61.04
2016-09-25T08:28:16.784Z,60.66
2016-09-25T08:29:16.804Z,60.75
2016-09-25T08:30:16.828Z,60.46
2016-09-25T08:31:16.867Z,60.75
2016-09-25T08:32:16.882Z,60.94
2016-09-25T08:33:16.900Z,60.39
2016-09-25T08:34:16.930Z,60.21
2016-09-25T08:35:16.936Z,60.39
2016-09-25T08:36:16.956Z,60.11
2016-09-25T08:37:16.985Z,59.92
2016-09-25T08:38:17.016Z,59.53
2016-09-25T08:39:17.035Z,59.72
2016-09-25T08:40:17.049Z,59.72
2016-09-25T08:41:17.084Z,59.63
2016-09-25T08:42:17.102Z,59.44
2016-09-25T08:43:17.116Z,59.34
2016-09-25T08:44:17.148Z,59.44
2016-09-25T08:45:17.164Z,58.89
2016-09-25T08:46:17.189Z,59.24
2016-09-25T08:47:17.209Z,58.89
2016-09-25T08:48:17.222Z,58.89
2016-09-25T08:49:17.243Z,59.05
2016-09-25T08:50:17.272Z,59.08
2016-09-25T08:51:17.301Z,58.57
2016-09-25T08:52:17.316Z,59.27
2016-09-25T08:53:17.340Z,58.95
2016-09-25T08:54:17.366Z,59.05
2016-09-25T08:55:17.398Z,58.86
2016-09-25T08:56:17.407Z,58.7
2016-09-25T08:57:17.476Z,58.6
2016-09-25T08:58:17.477Z,58.6
2016-09-25T08:59:17.515Z,58.7
2016-09-25T09:00:17.517Z,58.7
2016-09-25T09:01:17.565Z,58.98
2016-09-25T09:02:17.583Z,58.22
2016-09-25T09:03:17.611Z,58.02
2016-09-25T09:04:17.603Z,58.12
2016-09-25T09:05:17.614Z,58.53
2016-09-25T09:06:17.631Z,57.67
2016-09-25T09:07:17.657Z,57.76
2016-09-25T09:08:17.674Z,57.86
2016-09-25T09:09:17.690Z,56.7
2016-09-25T09:10:17.722Z,57.57
2016-09-25T09:11:17.745Z,57.47
2016-09-25T09:12:17.764Z,57.57
2016-09-25T09:13:17.802Z,57.09
2016-09-25T09:14:17.817Z,57.09
2016-09-25T09:15:17.823Z,56.03
2016-09-25T09:16:17.867Z,55.87
2016-09-25T09:17:17.885Z,56.15
2016-09-25T09:18:17.893Z,56.22
2016-09-25T09:19:17.917Z,56.25
2016-09-25T09:20:17.944Z,56.51
2016-09-25T09:21:17.968Z,56.22
2016-09-25T09:22:17.985Z,56.51
2016-09-25T09:23:18.008Z,56.32
2016-09-25T09:24:18.042Z,55.96
2016-09-25T09:25:18.055Z,56.63
2016-09-25T09:26:18.080Z,56.44
2016-09-25T09:27:18.103Z,56.35
2016-09-25T09:28:18.134Z,56.05
2016-09-25T09:29:18.154Z,55.57
2016-09-25T09:30:18.160Z,55.96
2016-09-25T09:31:18.197Z,56.15
2016-09-25T09:32:18.220Z,55.41
2016-09-25T09:33:18.240Z,55.51
2016-09-25T09:34:18.255Z,54.83
2016-09-25T09:35:18.280Z,54.74
2016-09-25T09:36:18.309Z,54.74
2016-09-25T09:37:18.330Z,54.74
2016-09-25T09:38:18.357Z,54.74
2016-09-25T09:39:18.369Z,55.31
2016-09-25T09:40:18.396Z,55.12
2016-09-25T09:41:18.419Z,55.79
2016-09-25T09:42:18.447Z,55.79
2016-09-25T09:43:18.461Z,55.79
2016-09-25T09:44:18.495Z,55.89
2016-09-25T09:45:18.502Z,55.79
2016-09-25T09:46:18.542Z,55.6
2016-09-25T09:47:18.558Z,54.64
2016-09-25T09:48:18.582Z,55.05
2016-09-25T09:49:18.603Z,53.8
2016-09-25T09:50:18.630Z,53.8
2016-09-25T09:51:18.650Z,53.51
2016-09-25T09:52:18.670Z,52.83
2016-09-25T09:53:18.702Z,52.93
2016-09-25T09:54:18.717Z,52.93
2016-09-25T09:55:18.743Z,53.13
2016-09-25T09:56:18.762Z,53.41
2016-09-25T09:57:18.787Z,53.03
2016-09-25T09:58:18.810Z,53.61
2016-09-25T09:59:18.827Z,53.89
2016-09-25T10:00:18.849Z,53.7
2016-09-25T10:01:18.875Z,53.7
2016-09-25T10:02:18.910Z,53.61
2016-09-25T10:03:18.926Z,53.7
2016-09-25T10:04:18.952Z,53.51
2016-09-25T10:05:18.980Z,53.41
2016-09-25T10:06:18.982Z,53.89
2016-09-25T10:07:19.007Z,53.8
2016-09-25T10:08:19.030Z,54.09
2016-09-25T10:09:19.061Z,53.8
2016-09-25T10:10:19.088Z,54.09
2016-09-25T10:11:19.107Z,53.89
2016-09-25T10:12:19.124Z,53.8
2016-09-25T10:13:19.146Z,53.7
2016-09-25T10:14:19.178Z,54.02
2016-09-25T10:15:19.201Z,53.61
2016-09-25T10:16:19.226Z,53.92
2016-09-25T10:17:19.250Z,53.53
2016-09-25T10:18:19.263Z,53.44
2016-09-25T10:19:19.301Z,53.63
2016-09-25T10:20:19.315Z,53.53
2016-09-25T10:21:19.348Z,53.34
2016-09-25T10:22:19.364Z,53.63
2016-09-25T10:23:19.388Z,53.34
2016-09-25T10:24:19.401Z,53.44
2016-09-25T10:25:19.435Z,53.44
2016-09-25T10:26:19.464Z,53.63
2016-09-25T10:27:19.473Z,53.34
2016-09-25T10:28:19.506Z,53.25
2016-09-25T10:29:19.527Z,53.15
2016-09-25T10:30:19.558Z,53.44
2016-09-25T10:31:19.569Z,53.53
2016-09-25T10:32:19.584Z,53.53
2016-09-25T10:34:19.672Z,53.25
2016-09-25T10:35:19.710Z,53.05
2016-09-25T10:36:19.715Z,53.27
2016-09-25T10:37:19.764Z,52.98
2016-09-25T10:38:19.777Z,52.69
2016-09-25T10:39:19.796Z,52.79
2016-09-25T10:40:19.794Z,51.82
2016-09-25T10:41:19.806Z,51.44
2016-09-25T10:42:19.833Z,51.15
2016-09-25T10:43:20.088Z,51.15
2016-09-25T10:44:19.891Z,51.25
2016-09-25T10:45:19.936Z,50.76
2016-09-25T10:46:19.976Z,50.86
2016-09-25T10:47:19.997Z,51.25
2016-09-25T10:48:20.010Z,51.05
2016-09-25T10:49:20.002Z,50.67
2016-09-25T10:50:20.005Z,50.09
2016-09-25T10:51:20.044Z,49.99
2016-09-25T10:52:34.897Z,50.38
2016-09-25T10:53:20.089Z,50.47
2016-09-25T10:54:20.101Z,50.09
2016-09-25T10:55:20.127Z,49.99
2016-09-25T10:56:20.142Z,50.18
2016-09-25T10:57:20.179Z,50.09
2016-09-25T10:58:20.191Z,49.9
2016-09-25T10:59:20.233Z,50.4
2016-09-25T11:00:20.265Z,50.4
2016-09-25T11:01:20.267Z,50.21
2016-09-25T11:02:20.290Z,50.01
2016-09-25T11:03:20.316Z,49.73
2016-09-25T11:04:20.332Z,49.15
2016-09-25T11:05:20.363Z,49.53
2016-09-25T11:06:20.401Z,49.73
2016-09-25T11:07:20.405Z,49.53
2016-09-25T11:08:20.430Z,49.73
2016-09-25T11:09:20.469Z,48.95
2016-09-25T11:10:20.501Z,49.27
2016-09-25T11:11:20.512Z,48.88
2016-09-25T11:12:20.540Z,48.69
2016-09-25T11:13:20.552Z,48.69
2016-09-25T11:14:20.579Z,48.21
2016-09-25T11:15:20.601Z,48.39
2016-09-25T11:19:20.700Z,47.26
2016-09-25T11:24:20.833Z,46.49
2016-09-25T11:34:21.050Z,45.74
2016-09-25T11:35:21.067Z,45.25
2016-09-25T11:36:21.109Z,45.45
2016-09-25T11:37:21.126Z,46.03
2016-09-25T11:38:21.147Z,46.12
2016-09-25T11:39:21.174Z,45.74
2016-09-25T11:40:21.204Z,45.64
2016-09-25T11:41:21.223Z,46.32
2016-09-25T11:42:21.239Z,46.22
2016-09-25T11:43:21.275Z,46.42
2016-09-25T11:44:21.291Z,46.03
2016-09-25T11:45:21.313Z,46.22
2016-09-25T11:46:21.335Z,46.22
2016-09-25T11:47:21.368Z,45.74
2016-09-25T11:48:21.387Z,45.83
2016-09-25T11:49:21.416Z,45.64
2016-09-25T11:50:21.433Z,45.35
2016-09-25T11:51:21.464Z,45.64
2016-09-25T11:52:21.489Z,45.66
2016-09-25T11:53:21.508Z,45.35
2016-09-25T11:54:21.528Z,45.45
2016-09-25T11:55:21.562Z,45.64
2016-09-25T11:57:21.602Z,45.47
2016-09-25T11:59:21.655Z,45.08
2016-09-25T12:00:21.673Z,45.57
2016-09-25T12:01:21.705Z,45.18
2016-09-25T12:02:21.723Z,44.7
2016-09-25T12:03:21.746Z,45.28
2016-09-25T12:04:21.771Z,44.5
2016-09-25T12:05:21.796Z,44.5
2016-09-25T12:06:21.831Z,44.62
2016-09-25T12:07:21.849Z,44.43
2016-09-25T12:08:21.866Z,44.91
2016-09-25T12:09:21.908Z,44.62
2016-09-25T12:10:21.932Z,44.62
2016-09-25T12:11:21.936Z,43.85
2016-09-25T12:12:21.978Z,43.95
2016-09-25T12:13:22.003Z,43.75
2016-09-25T12:14:22.024Z,43.46
2016-09-25T12:15:22.040Z,43.46
2016-09-25T12:16:22.065Z,43.37
2016-09-25T12:17:22.097Z,43.46
2016-09-25T12:18:22.123Z,43.65
2016-09-25T12:19:22.147Z,43.55
2016-09-25T12:20:22.164Z,43.46
2016-09-25T12:21:22.189Z,43.27
2016-09-25T12:22:22.221Z,43.65
2016-09-25T12:23:22.280Z,42.88
2016-09-25T12:24:22.260Z,42.97
2016-09-25T12:25:22.292Z,43.07
2016-09-25T12:26:22.308Z,42.88
2016-09-25T12:27:22.340Z,43.17
2016-09-25T12:28:22.364Z,43.17
2016-09-25T12:29:22.395Z,43.17
2016-09-25T12:30:22.408Z,42.97
2016-09-25T12:31:22.426Z,42.4
2016-09-25T12:32:22.465Z,42
2016-09-25T12:33:22.488Z,42.2
2016-09-25T12:34:22.512Z,43.09
2016-09-25T12:35:22.535Z,42.71
2016-09-25T12:36:22.561Z,42.8
2016-09-25T12:37:22.582Z,42.8
2016-09-25T12:38:22.611Z,42.61
2016-09-25T12:39:22.628Z,42.22
2016-09-25T12:40:22.651Z,41.83
2016-09-25T12:41:22.696Z,42.03
2016-09-25T12:42:22.706Z,42.22
2016-09-25T12:43:22.732Z,41.93
2016-09-25T12:44:22.752Z,42.22
2016-09-25T12:45:22.787Z,41.83
2016-09-25T12:46:22.808Z,42.32
2016-09-25T12:47:22.827Z,42.41
2016-09-25T12:48:22.851Z,42.22
2016-09-25T12:49:22.874Z,42.22
2016-09-25T12:50:22.903Z,42.34
2016-09-25T12:51:22.930Z,42.34
2016-09-25T12:52:22.957Z,42.05
2016-09-25T12:53:22.969Z,42.34
2016-09-25T12:54:23.013Z,42.13
2016-09-25T12:55:23.019Z,42.34
2016-09-25T12:56:23.055Z,42.24
2016-09-25T12:57:23.080Z,42.24
2016-09-25T12:58:23.091Z,41.86
2016-09-25T12:59:23.130Z,41.56
2016-09-25T13:00:23.139Z,41.66
2016-09-25T13:01:23.180Z,41.86
2016-09-25T13:02:23.197Z,41.66
2016-09-25T13:03:23.216Z,41.27
2016-09-25T13:04:23.239Z,41.47
2016-09-25T13:05:23.272Z,41.08
2016-09-25T13:06:23.296Z,41.17
2016-09-25T13:07:23.332Z,40.31
2016-09-25T13:08:23.338Z,40.11
2016-09-25T13:09:23.377Z,40.4
2016-09-25T13:10:23.398Z,40.5
2016-09-25T13:11:23.424Z,40.69
2016-09-25T13:12:23.444Z,40.89
2016-09-25T13:13:23.469Z,40.69
2016-09-25T13:14:23.495Z,40.5
2016-09-25T13:15:23.517Z,40.79